Time;durP1;ratioP1;P1;durP2;ratioP2;P2;SDS_P1;SDS_P2;PMS_P1;PMS_P2;Temp;Humidity;BMP_temperature;BMP_pressure;BME280_temperature;BME280_humidity;BME280_pressure;Samples;Min_cycle;Max_cycle;Signal;HPM_P1;HPM_P2
2022/02/13 00:00:48;;;;;;;4.70;3.43;;;;;;;;;;5053184;28;20289;-89
2022/02/13 00:03:16;;;;;;;5.33;3.40;;;;;;;;;;5053151;28;20198;-89
2022/02/13 00:05:43;;;;;;;5.10;4.03;;;;;;;;;;5052943;28;20194;-88
2022/02/13 00:08:10;;;;;;;4.73;4.10;;;;;;;;;;5053061;28;20648;-89
2022/02/13 00:10:39;;;;;;;4.63;3.73;;;;;;;;;;5053320;28;20727;-90
2022/02/13 00:13:06;;;;;;;6.60;3.17;;;;;;;;;;5053258;28;20204;-89
2022/02/13 00:15:33;;;;;;;4.83;3.10;;;;;;;;;;5053102;28;20226;-89
2022/02/13 00:18:01;;;;;;;4.30;3.50;;;;;;;;;;5053120;28;20194;-89
2022/02/13 00:20:28;;;;;;;5.17;3.57;;;;;;;;;;5053126;28;20204;-89
2022/02/13 00:22:55;;;;;;;3.73;2.90;;;;;;;;;;5052911;28;20200;-89
2022/02/13 00:25:22;;;;;;;4.47;3.33;;;;;;;;;;5053353;28;20196;-89
2022/02/13 00:27:51;;;;;;;4.03;3.37;;;;;;;;;;5053148;28;20202;-89
2022/02/13 00:30:18;;;;;;;4.07;3.27;;;;;;;;;;5052687;28;20198;-89
2022/02/13 00:32:46;;;;;;;5.33;3.63;;;;;;;;;;5052725;28;20190;-89
2022/02/13 00:35:14;;;;;;;3.50;3.13;;;;;;;;;;5052690;28;20217;-88
2022/02/13 00:37:41;;;;;;;3.17;2.87;;;;;;;;;;5053457;28;20229;-89
2022/02/13 00:40:10;;;;;;;3.87;3.40;;;;;;;;;;5052533;28;20236;-88
2022/02/13 00:42:37;;;;;;;5.87;3.07;;;;;;;;;;5052615;28;20197;-89
2022/02/13 00:45:08;;;;;;;4.53;3.67;;;;;;;;;;5052610;28;20198;-89
2022/02/13 00:47:36;;;;;;;5.00;3.97;;;;;;;;;;5052719;28;20182;-89
2022/02/13 00:50:03;;;;;;;3.67;3.10;;;;;;;;;;5052278;28;20293;-89
2022/02/13 00:52:32;;;;;;;4.93;3.50;;;;;;;;;;5052201;28;20249;-88
2022/02/13 00:55:00;;;;;;;4.63;3.60;;;;;;;;;;5052160;28;20201;-89
2022/02/13 00:57:28;;;;;;;4.43;4.03;;;;;;;;;;5052790;28;20236;-89
2022/02/13 00:59:55;;;;;;;4.17;3.30;;;;;;;;;;5052462;28;20197;-89
2022/02/13 01:02:24;;;;;;;3.30;2.70;;;;;;;;;;5052655;28;20205;-89
2022/02/13 01:04:51;;;;;;;3.57;3.03;;;;;;;;;;5052460;28;20249;-89
2022/02/13 01:07:18;;;;;;;3.57;2.93;;;;;;;;;;5052648;28;20198;-89
2022/02/13 01:09:45;;;;;;;5.80;3.60;;;;;;;;;;5052607;28;20585;-89
2022/02/13 01:12:13;;;;;;;5.33;3.03;;;;;;;;;;5052546;28;20205;-89
2022/02/13 01:14:40;;;;;;;4.10;3.03;;;;;;;;;;5052413;28;20288;-90
2022/02/13 01:17:07;;;;;;;3.43;3.13;;;;;;;;;;5052215;28;20227;-89
2022/02/13 01:19:36;;;;;;;3.30;3.00;;;;;;;;;;5052564;28;20201;-90
2022/02/13 01:22:07;;;;;;;3.30;3.00;;;;;;;;;;5052553;28;20276;-89
2022/02/13 01:24:34;;;;;;;5.03;2.93;;;;;;;;;;5052335;28;20190;-89
2022/02/13 01:27:02;;;;;;;7.03;3.40;;;;;;;;;;5052552;28;20237;-89
2022/02/13 01:29:29;;;;;;;5.17;3.00;;;;;;;;;;5052619;28;20632;-89
2022/02/13 01:31:57;;;;;;;5.33;3.13;;;;;;;;;;5052533;28;20282;-89
2022/02/13 01:34:26;;;;;;;5.73;3.47;;;;;;;;;;5052516;28;20649;-89
2022/02/13 01:36:55;;;;;;;4.53;3.67;;;;;;;;;;5052335;28;20724;-89
2022/02/13 01:39:22;;;;;;;8.87;5.27;;;;;;;;;;5052368;28;20237;-90
2022/02/13 01:41:50;;;;;;;7.37;4.87;;;;;;;;;;5052517;28;20202;-90
2022/02/13 01:44:25;;;;;;;8.70;5.30;;;;;;;;;;5052400;28;20194;-89
2022/02/13 01:46:53;;;;;;;5.17;3.10;;;;;;;;;;5052164;28;20201;-89
2022/02/13 01:49:20;;;;;;;4.33;3.47;;;;;;;;;;5051905;28;20189;-88
2022/02/13 01:51:48;;;;;;;4.57;3.60;;;;;;;;;;5051931;28;20240;-89
2022/02/13 01:54:17;;;;;;;3.47;3.17;;;;;;;;;;5052014;28;20194;-89
2022/02/13 01:56:44;;;;;;;4.50;3.30;;;;;;;;;;5052094;28;20289;-89
2022/02/13 01:59:12;;;;;;;5.27;3.50;;;;;;;;;;5051925;28;20190;-89
2022/02/13 02:01:40;;;;;;;6.27;3.30;;;;;;;;;;5051838;28;20252;-89
2022/02/13 02:04:07;;;;;;;4.70;3.40;;;;;;;;;;5051819;28;20202;-89
2022/02/13 02:06:34;;;;;;;4.13;3.23;;;;;;;;;;5053728;28;20293;-89
2022/02/13 02:09:02;;;;;;;7.57;4.13;;;;;;;;;;5055347;28;20194;-89
2022/02/13 02:11:31;;;;;;;5.00;3.50;;;;;;;;;;5055709;28;20206;-89
2022/02/13 02:13:58;;;;;;;4.40;4.00;;;;;;;;;;5055385;28;20198;-90
2022/02/13 02:16:26;;;;;;;6.10;3.50;;;;;;;;;;5055224;28;20316;-89
2022/02/13 02:18:54;;;;;;;9.80;3.40;;;;;;;;;;5055171;28;20659;-90
2022/02/13 02:21:21;;;;;;;3.80;3.40;;;;;;;;;;5055281;28;20288;-89
2022/02/13 02:23:50;;;;;;;5.70;3.80;;;;;;;;;;5055149;28;20205;-89
2022/02/13 02:26:18;;;;;;;5.03;3.97;;;;;;;;;;5055055;28;20204;-89
2022/02/13 02:28:45;;;;;;;3.63;3.33;;;;;;;;;;5055113;28;20198;-89
2022/02/13 02:31:13;;;;;;;3.67;3.33;;;;;;;;;;5055170;28;20204;-89
2022/02/13 02:33:40;;;;;;;6.40;4.53;;;;;;;;;;5055176;28;20194;-90
2022/02/13 02:36:15;;;;;;;4.67;3.77;;;;;;;;;;5054985;28;20236;-89
2022/02/13 02:38:42;;;;;;;5.80;2.93;;;;;;;;;;5055314;28;20192;-89
2022/02/13 02:41:11;;;;;;;3.43;3.13;;;;;;;;;;5054798;28;20200;-90
2022/02/13 02:43:38;;;;;;;3.87;3.07;;;;;;;;;;5054884;28;20277;-88
2022/02/13 02:46:06;;;;;;;9.87;4.10;;;;;;;;;;5054692;28;20233;-89
2022/02/13 02:48:34;;;;;;;7.23;3.90;;;;;;;;;;5054754;28;20211;-89
2022/02/13 02:51:01;;;;;;;4.67;4.00;;;;;;;;;;5054771;28;20198;-89
2022/02/13 02:53:29;;;;;;;5.77;3.30;;;;;;;;;;5054887;28;20223;-89
2022/02/13 02:55:56;;;;;;;8.23;3.80;;;;;;;;;;5054440;28;20221;-90
2022/02/13 02:58:25;;;;;;;6.57;4.00;;;;;;;;;;5054651;28;20194;-88
2022/02/13 03:00:52;;;;;;;5.37;3.63;;;;;;;;;;5054622;28;20288;-89
2022/02/13 03:03:20;;;;;;;4.50;3.53;;;;;;;;;;5054833;28;20587;-89
2022/02/13 03:05:48;;;;;;;6.23;3.63;;;;;;;;;;5054382;28;20198;-88
2022/02/13 03:08:16;;;;;;;6.33;3.67;;;;;;;;;;5054518;28;20194;-89
2022/02/13 03:10:43;;;;;;;3.63;3.23;;;;;;;;;;5054378;28;20212;-89
2022/02/13 03:13:13;;;;;;;3.73;3.27;;;;;;;;;;5054279;28;20261;-89
2022/02/13 03:15:43;;;;;;;2.90;2.60;;;;;;;;;;5054329;28;20662;-89
2022/02/13 03:18:10;;;;;;;4.03;3.00;;;;;;;;;;5053966;28;20202;-89
2022/02/13 03:20:37;;;;;;;5.93;3.43;;;;;;;;;;5054064;28;20202;-89
2022/02/13 03:23:05;;;;;;;5.40;3.10;;;;;;;;;;5054098;28;20198;-89
2022/02/13 03:25:32;;;;;;;5.67;2.97;;;;;;;;;;5054661;28;20276;-89
2022/02/13 03:27:59;;;;;;;4.57;3.17;;;;;;;;;;5054207;28;20201;-89
2022/02/13 03:30:27;;;;;;;5.33;3.03;;;;;;;;;;5053870;28;20281;-89
2022/02/13 03:32:56;;;;;;;3.37;3.07;;;;;;;;;;5054030;28;20273;-89
2022/02/13 03:35:23;;;;;;;6.13;4.00;;;;;;;;;;5053537;28;20194;-89
2022/02/13 03:37:50;;;;;;;6.03;4.40;;;;;;;;;;5054387;28;20225;-89
2022/02/13 03:40:18;;;;;;;3.87;3.47;;;;;;;;;;5053573;28;20205;-89
2022/02/13 03:42:45;;;;;;;3.13;2.60;;;;;;;;;;5053646;28;20237;-89
2022/02/13 03:45:13;;;;;;;7.20;4.80;;;;;;;;;;5054093;28;20581;-89
2022/02/13 03:47:40;;;;;;;5.43;3.10;;;;;;;;;;5053691;28;20198;-89
2022/02/13 03:50:10;;;;;;;10.93;7.93;;;;;;;;;;5053785;28;20689;-89
2022/02/13 03:52:37;;;;;;;7.60;4.47;;;;;;;;;;5053480;28;20240;-89
2022/02/13 03:55:06;;;;;;;9.10;4.03;;;;;;;;;;5053410;28;20200;-89
2022/02/13 03:57:33;;;;;;;11.77;3.20;;;;;;;;;;5053381;28;20232;-89
2022/02/13 04:00:01;;;;;;;5.63;3.50;;;;;;;;;;5053245;28;20201;-90
2022/02/13 04:02:28;;;;;;;7.70;4.00;;;;;;;;;;5053197;28;20194;-89
2022/02/13 04:04:57;;;;;;;4.23;3.53;;;;;;;;;;5053120;28;20693;-89
2022/02/13 04:07:28;;;;;;;7.47;2.87;;;;;;;;;;5053741;28;20637;-90
2022/02/13 04:09:55;;;;;;;4.13;2.90;;;;;;;;;;5053543;28;20736;-89
2022/02/13 04:12:24;;;;;;;9.10;3.17;;;;;;;;;;5053081;28;20197;-89
2022/02/13 04:14:51;;;;;;;4.97;2.40;;;;;;;;;;5053089;28;20288;-89
2022/02/13 04:17:19;;;;;;;8.90;4.83;;;;;;;;;;5053219;28;20222;-89
2022/02/13 04:19:46;;;;;;;7.07;5.30;;;;;;;;;;5053035;28;20204;-89
2022/02/13 04:22:14;;;;;;;2.73;2.53;;;;;;;;;;5053284;28;20204;-90
2022/02/13 04:24:42;;;;;;;2.50;2.30;;;;;;;;;;5053212;28;20674;-89
2022/02/13 04:27:10;;;;;;;4.90;2.83;;;;;;;;;;5053150;28;20206;-89
2022/02/13 04:29:37;;;;;;;6.17;3.23;;;;;;;;;;5052188;28;20684;-89
2022/02/13 04:32:05;;;;;;;5.77;2.77;;;;;;;;;;5053159;28;20665;-89
2022/02/13 04:34:32;;;;;;;6.20;4.73;;;;;;;;;;5053150;28;20643;-89
2022/02/13 04:36:59;;;;;;;4.57;2.80;;;;;;;;;;5053335;28;20224;-89
2022/02/13 04:39:27;;;;;;;4.77;3.63;;;;;;;;;;5052995;28;20296;-89
2022/02/13 04:41:55;;;;;;;4.13;3.20;;;;;;;;;;5053059;28;20740;-88
2022/02/13 04:44:23;;;;;;;6.00;3.20;;;;;;;;;;5053269;28;20197;-90
2022/02/13 04:46:50;;;;;;;7.20;3.83;;;;;;;;;;5053004;28;20281;-89
2022/02/13 04:49:17;;;;;;;5.03;3.57;;;;;;;;;;5052490;28;20190;-90
2022/02/13 04:51:44;;;;;;;5.80;5.13;;;;;;;;;;5052665;28;20605;-89
2022/02/13 04:54:12;;;;;;;3.43;3.00;;;;;;;;;;5052810;28;20289;-89
2022/02/13 04:56:39;;;;;;;11.77;8.00;;;;;;;;;;5052465;28;20226;-89
2022/02/13 04:59:09;;;;;;;7.60;5.97;;;;;;;;;;5052912;28;20207;-89
2022/02/13 05:01:37;;;;;;;25.60;17.47;;;;;;;;;;5052588;28;20304;-89
2022/02/13 05:04:04;;;;;;;11.40;8.37;;;;;;;;;;5052731;28;20563;-89
2022/02/13 05:06:31;;;;;;;42.00;37.13;;;;;;;;;;5052314;28;20259;-89
2022/02/13 05:09:00;;;;;;;18.97;17.07;;;;;;;;;;5052697;28;20194;-89
2022/02/13 05:11:27;;;;;;;11.80;7.77;;;;;;;;;;5052437;28;20198;-89
2022/02/13 05:13:55;;;;;;;8.60;5.73;;;;;;;;;;5052229;28;20666;-89
2022/02/13 05:16:23;;;;;;;22.13;12.60;;;;;;;;;;5052012;28;20292;-88
2022/02/13 05:18:51;;;;;;;6.63;3.87;;;;;;;;;;5052221;28;20221;-89
2022/02/13 05:21:18;;;;;;;4.97;4.50;;;;;;;;;;5052102;28;20206;-89
2022/02/13 05:23:45;;;;;;;9.23;6.03;;;;;;;;;;5052141;28;20198;-89
2022/02/13 05:26:14;;;;;;;6.80;4.50;;;;;;;;;;5052275;28;20288;-88
2022/02/13 05:28:41;;;;;;;4.40;3.60;;;;;;;;;;5052537;28;20221;-89
2022/02/13 05:31:09;;;;;;;6.53;3.47;;;;;;;;;;5052402;28;20552;-89
2022/02/13 05:33:38;;;;;;;8.03;3.60;;;;;;;;;;5052171;28;20233;-89
2022/02/13 05:36:05;;;;;;;12.10;8.40;;;;;;;;;;5052298;28;20194;-89
2022/02/13 05:38:32;;;;;;;48.53;27.70;;;;;;;;;;5052377;28;20598;-89
2022/02/13 05:41:00;;;;;;;97.77;45.60;;;;;;;;;;5054700;28;20198;-90
2022/02/13 05:43:28;;;;;;;80.90;43.67;;;;;;;;;;5055903;28;20296;-90
2022/02/13 05:45:55;;;;;;;20.93;12.10;;;;;;;;;;5056262;28;20206;-90
2022/02/13 05:48:25;;;;;;;16.73;10.50;;;;;;;;;;5056171;28;20563;-89
2022/02/13 05:50:54;;;;;;;8.83;7.30;;;;;;;;;;5056022;28;20202;-88
2022/02/13 05:53:21;;;;;;;22.93;16.77;;;;;;;;;;5056081;28;20210;-89
2022/02/13 05:55:49;;;;;;;52.60;32.43;;;;;;;;;;5055722;28;20225;-89
2022/02/13 05:58:16;;;;;;;31.67;20.57;;;;;;;;;;5055574;28;20225;-89
2022/02/13 06:00:44;;;;;;;18.93;14.83;;;;;;;;;;5055806;28;20678;-89
2022/02/13 06:03:11;;;;;;;25.60;14.43;;;;;;;;;;5055881;28;20343;-89
2022/02/13 06:05:39;;;;;;;40.63;27.40;;;;;;;;;;5055516;28;20255;-89
2022/02/13 06:08:07;;;;;;;45.30;26.27;;;;;;;;;;5055387;28;20198;-89
2022/02/13 06:10:35;;;;;;;33.93;21.67;;;;;;;;;;5055427;28;20212;-89
2022/02/13 06:13:03;;;;;;;63.47;40.23;;;;;;;;;;5055632;28;20200;-89
2022/02/13 06:15:30;;;;;;;34.60;25.17;;;;;;;;;;5055537;28;20234;-89
2022/02/13 06:17:57;;;;;;;17.27;13.07;;;;;;;;;;5055457;28;20221;-89
2022/02/13 06:20:25;;;;;;;7.07;6.33;;;;;;;;;;5055265;28;20673;-89
2022/02/13 06:22:52;;;;;;;7.27;3.47;;;;;;;;;;5055354;28;20197;-88
2022/02/13 06:25:21;;;;;;;4.20;3.40;;;;;;;;;;5055408;28;20244;-89
2022/02/13 06:27:48;;;;;;;4.27;3.50;;;;;;;;;;5055710;28;20202;-89
2022/02/13 06:30:15;;;;;;;4.50;3.37;;;;;;;;;;5055147;28;20288;-89
2022/02/13 06:32:43;;;;;;;18.63;14.43;;;;;;;;;;5055432;28;20194;-90
2022/02/13 06:35:10;;;;;;;18.77;14.60;;;;;;;;;;5055030;28;20196;-90
2022/02/13 06:37:38;;;;;;;15.23;11.20;;;;;;;;;;5054845;28;20257;-89
2022/02/13 06:40:07;;;;;;;52.73;28.00;;;;;;;;;;5055287;28;20200;-89
2022/02/13 06:42:36;;;;;;;12.87;6.63;;;;;;;;;;5054021;28;20202;-91
2022/02/13 06:45:04;;;;;;;10.43;5.40;;;;;;;;;;5054878;28;20677;-91
2022/02/13 06:47:32;;;;;;;12.83;5.97;;;;;;;;;;5055170;28;20281;-92
2022/02/13 06:49:59;;;;;;;7.53;5.43;;;;;;;;;;5055045;28;20190;-90
2022/02/13 06:52:26;;;;;;;11.37;9.90;;;;;;;;;;5054039;28;20233;-92
2022/02/13 06:54:53;;;;;;;6.03;4.53;;;;;;;;;;5054807;28;20197;-92
2022/02/13 06:57:20;;;;;;;8.70;5.33;;;;;;;;;;5054574;28;20221;-89
2022/02/13 06:59:49;;;;;;;4.60;3.93;;;;;;;;;;5054455;28;20231;-91
2022/02/13 07:02:16;;;;;;;5.07;3.87;;;;;;;;;;5054674;28;20298;-91
2022/02/13 07:04:43;;;;;;;5.67;4.07;;;;;;;;;;5054753;28;20212;-92
2022/02/13 07:07:11;;;;;;;4.10;3.50;;;;;;;;;;5054674;28;20670;-92
2022/02/13 07:09:38;;;;;;;3.53;3.10;;;;;;;;;;5054463;28;20199;-88
2022/02/13 07:12:09;;;;;;;8.00;3.30;;;;;;;;;;5054485;28;20670;-96
2022/02/13 07:14:36;;;;;;;4.60;3.27;;;;;;;;;;5054365;28;20216;-88
2022/02/13 07:17:06;;;;;;;10.43;7.43;;;;;;;;;;5054062;28;20293;-89
2022/02/13 07:19:33;;;;;;;13.87;7.50;;;;;;;;;;5054304;28;20292;-89
2022/02/13 07:22:00;;;;;;;36.40;14.93;;;;;;;;;;5054280;28;20217;-89
2022/02/13 07:24:27;;;;;;;69.73;23.17;;;;;;;;;;5054403;28;20273;-89
2022/02/13 07:26:55;;;;;;;61.53;26.63;;;;;;;;;;5054190;28;20197;-89
2022/02/13 07:29:22;;;;;;;16.30;10.87;;;;;;;;;;5054110;28;20217;-89
2022/02/13 07:31:49;;;;;;;16.60;9.80;;;;;;;;;;5053869;28;20289;-89
2022/02/13 07:34:18;;;;;;;19.07;11.33;;;;;;;;;;5057553;28;20645;-91
2022/02/13 07:36:51;;;;;;;8.93;5.87;;;;;;;;;;5054222;28;20214;-92
2022/02/13 07:39:19;;;;;;;5.57;4.40;;;;;;;;;;5054492;28;20217;-94
2022/02/13 07:41:47;;;;;;;12.00;7.83;;;;;;;;;;5053836;28;20237;-89
2022/02/13 07:44:14;;;;;;;9.53;4.60;;;;;;;;;;5054018;28;20202;-94
2022/02/13 07:46:41;;;;;;;4.27;3.40;;;;;;;;;;5053895;28;20197;-94
2022/02/13 07:49:08;;;;;;;7.27;4.87;;;;;;;;;;5053870;28;20197;-94
2022/02/13 07:51:37;;;;;;;30.43;16.70;;;;;;;;;;5055433;28;20235;-91
2022/02/13 07:54:05;;;;;;;18.93;12.10;;;;;;;;;;5053652;28;20194;-95
2022/02/13 07:56:32;;;;;;;8.87;5.90;;;;;;;;;;5053765;28;20292;-91
2022/02/13 07:58:59;;;;;;;9.13;5.97;;;;;;;;;;5053684;28;20757;-90
2022/02/13 08:01:26;;;;;;;5.90;4.10;;;;;;;;;;5053556;28;20277;-91
2022/02/13 08:03:53;;;;;;;4.80;4.07;;;;;;;;;;5053901;28;20281;-91
2022/02/13 08:06:21;;;;;;;8.20;4.87;;;;;;;;;;5053464;28;20649;-89
2022/02/13 08:08:50;;;;;;;4.73;4.33;;;;;;;;;;5053440;28;20194;-89
2022/02/13 08:11:18;;;;;;;14.93;8.20;;;;;;;;;;5057426;28;20218;-87
2022/02/13 08:13:46;;;;;;;6.10;5.33;;;;;;;;;;5056518;28;20193;-89
2022/02/13 08:16:13;;;;;;;6.53;5.07;;;;;;;;;;5053113;28;20263;-89
2022/02/13 08:18:41;;;;;;;8.23;4.47;;;;;;;;;;5053173;28;20807;-89
2022/02/13 08:21:09;;;;;;;4.47;3.70;;;;;;;;;;5053148;28;20202;-90
2022/02/13 08:23:37;;;;;;;10.33;6.13;;;;;;;;;;5053331;28;20285;-90
2022/02/13 08:26:06;;;;;;;8.67;3.97;;;;;;;;;;5053043;28;20190;-89
2022/02/13 08:28:34;;;;;;;11.30;5.67;;;;;;;;;;5052983;28;20737;-89
2022/02/13 08:31:02;;;;;;;4.10;3.50;;;;;;;;;;5052771;28;20194;-90
2022/02/13 08:33:32;;;;;;;3.10;2.80;;;;;;;;;;5052932;28;20674;-91
2022/02/13 08:35:59;;;;;;;4.77;2.90;;;;;;;;;;5061139;28;20284;-90
2022/02/13 08:38:27;;;;;;;12.10;8.33;;;;;;;;;;5052876;28;20225;-89
2022/02/13 08:40:54;;;;;;;8.80;6.37;;;;;;;;;;5052778;28;20688;-91
2022/02/13 08:43:23;;;;;;;9.03;6.23;;;;;;;;;;5053045;28;20194;-93
2022/02/13 08:45:52;;;;;;;8.67;7.00;;;;;;;;;;5052932;28;20236;-93
2022/02/13 08:48:21;;;;;;;8.57;7.00;;;;;;;;;;5053013;28;20198;-90
2022/02/13 08:50:48;;;;;;;15.30;9.47;;;;;;;;;;5052874;28;20609;-90
2022/02/13 08:53:16;;;;;;;8.67;5.07;;;;;;;;;;5052717;28;20289;-92
2022/02/13 08:55:43;;;;;;;37.17;18.20;;;;;;;;;;5053124;28;20201;-91
2022/02/13 08:58:10;;;;;;;53.43;24.60;;;;;;;;;;5053169;28;20229;-91
2022/02/13 09:00:39;;;;;;;47.93;22.53;;;;;;;;;;5052440;28;20670;-89
2022/02/13 09:03:06;;;;;;;15.27;7.17;;;;;;;;;;5052784;28;20209;-89
2022/02/13 09:05:33;;;;;;;50.63;12.30;;;;;;;;;;5052393;28;20197;-89
2022/02/13 09:08:02;;;;;;;8.97;6.07;;;;;;;;;;5052469;28;20198;-90
2022/02/13 09:10:30;;;;;;;50.07;29.53;;;;;;;;;;5052546;28;20284;-89
2022/02/13 09:12:57;;;;;;;16.87;11.50;;;;;;;;;;5052338;28;20207;-88
2022/02/13 09:15:25;;;;;;;12.00;6.73;;;;;;;;;;5054193;28;20232;-88
2022/02/13 09:17:53;;;;;;;29.37;9.97;;;;;;;;;;5056012;28;20255;-87
2022/02/13 09:20:20;;;;;;;7.77;4.73;;;;;;;;;;5055988;28;20753;-88
2022/02/13 09:22:48;;;;;;;5.13;3.57;;;;;;;;;;5055846;28;20236;-88
2022/02/13 09:25:16;;;;;;;12.37;8.77;;;;;;;;;;5056083;28;20277;-88
2022/02/13 09:27:43;;;;;;;6.90;5.87;;;;;;;;;;5056001;28;20280;-89
2022/02/13 09:30:11;;;;;;;10.53;6.20;;;;;;;;;;5056184;28;20269;-88
2022/02/13 09:32:39;;;;;;;3.80;2.80;;;;;;;;;;5056219;28;20296;-88
2022/02/13 09:35:10;;;;;;;2.50;2.23;;;;;;;;;;5056023;28;20213;-88
2022/02/13 09:37:37;;;;;;;6.37;3.23;;;;;;;;;;5056348;28;20272;-89
2022/02/13 09:40:05;;;;;;;4.73;3.00;;;;;;;;;;5056103;28;20720;-89
2022/02/13 09:42:32;;;;;;;6.10;5.53;;;;;;;;;;5056047;28;20194;-89
2022/02/13 09:45:00;;;;;;;6.07;4.77;;;;;;;;;;5055973;28;20244;-89
2022/02/13 09:47:28;;;;;;;4.73;2.63;;;;;;;;;;5056057;28;20233;-88
2022/02/13 09:49:56;;;;;;;3.53;2.80;;;;;;;;;;5056192;28;20240;-89
2022/02/13 09:52:25;;;;;;;4.87;3.40;;;;;;;;;;5055436;28;20230;-90
2022/02/13 09:54:52;;;;;;;4.60;2.97;;;;;;;;;;5055750;28;20659;-88
2022/02/13 10:00:05;;;;;;;6.57;3.53;;;;;;;;;;5053813;28;20216;-91
2022/02/13 10:02:35;;;;;;;3.80;2.70;;;;;;;;;;5055801;28;20748;-90
2022/02/13 10:05:03;;;;;;;4.70;3.07;;;;;;;;;;5055492;28;20198;-88
2022/02/13 10:07:34;;;;;;;5.80;3.83;;;;;;;;;;5060156;28;20230;-89
2022/02/13 10:10:03;;;;;;;5.13;3.23;;;;;;;;;;5059204;28;20193;-90
2022/02/13 10:12:34;;;;;;;19.93;10.30;;;;;;;;;;5055671;28;20347;-89
2022/02/13 10:15:27;;;;;;;10.50;8.80;;;;;;;;;;5055392;28;20256;-89
2022/02/13 10:17:59;;;;;;;6.83;4.10;;;;;;;;;;5055423;28;20617;-89
2022/02/13 10:20:27;;;;;;;3.83;3.27;;;;;;;;;;5055404;28;20646;-89
2022/02/13 10:22:56;;;;;;;9.07;6.93;;;;;;;;;;5055401;28;20198;-89
2022/02/13 10:25:23;;;;;;;17.13;14.00;;;;;;;;;;5055260;28;20284;-89
2022/02/13 10:27:51;;;;;;;9.80;6.73;;;;;;;;;;5054401;28;20285;-89
2022/02/13 10:30:39;;;;;;;8.03;6.63;;;;;;;;;;5055247;28;20229;-89
2022/02/13 10:33:17;;;;;;;36.50;28.73;;;;;;;;;;5055258;28;20213;-89
2022/02/13 10:35:44;;;;;;;10.63;8.27;;;;;;;;;;5055122;28;20289;-89
2022/02/13 10:38:16;;;;;;;2.90;2.60;;;;;;;;;;5054653;28;20285;-89
2022/02/13 10:40:43;;;;;;;5.70;4.93;;;;;;;;;;5055006;28;20194;-89
2022/02/13 10:43:11;;;;;;;8.33;6.70;;;;;;;;;;5054794;28;20749;-89
2022/02/13 10:45:40;;;;;;;7.70;4.30;;;;;;;;;;5054783;28;20202;-89
2022/02/13 10:48:09;;;;;;;86.77;34.77;;;;;;;;;;5054889;28;20194;-89
2022/02/13 10:50:37;;;;;;;92.03;44.23;;;;;;;;;;5054758;28;20236;-89
2022/02/13 10:53:06;;;;;;;14.07;9.03;;;;;;;;;;5054731;28;20234;-89
2022/02/13 10:55:36;;;;;;;32.10;16.67;;;;;;;;;;5054655;28;20218;-88
2022/02/13 10:58:04;;;;;;;90.63;39.50;;;;;;;;;;5054603;28;20204;-89
2022/02/13 11:00:32;;;;;;;29.53;16.03;;;;;;;;;;5054420;28;20202;-89
2022/02/13 11:03:02;;;;;;;29.70;16.77;;;;;;;;;;5054400;28;20284;-89
2022/02/13 11:05:32;;;;;;;116.90;59.10;;;;;;;;;;5054670;28;20206;-88
2022/02/13 11:08:05;;;;;;;26.77;16.43;;;;;;;;;;5054220;28;20662;-88
2022/02/13 11:10:36;;;;;;;8.23;5.30;;;;;;;;;;5054182;28;20190;-88
2022/02/13 11:13:04;;;;;;;28.43;15.40;;;;;;;;;;5054290;28;20260;-89
2022/02/13 11:15:33;;;;;;;23.50;13.50;;;;;;;;;;5054313;28;20281;-88
2022/02/13 11:18:03;;;;;;;23.60;13.13;;;;;;;;;;5054223;28;20688;-88
2022/02/13 11:20:31;;;;;;;44.60;26.27;;;;;;;;;;5054086;28;20206;-89
2022/02/13 11:23:18;;;;;;;42.47;23.63;;;;;;;;;;5053854;28;20234;-89
2022/02/13 11:25:55;;;;;;;48.93;30.93;;;;;;;;;;5053814;28;20182;-88
2022/02/13 11:28:26;;;;;;;10.00;8.17;;;;;;;;;;5053870;28;20677;-89
2022/02/13 11:30:55;;;;;;;32.93;21.13;;;;;;;;;;5053813;28;20190;-86
2022/02/13 11:33:44;;;;;;;19.40;14.00;;;;;;;;;;5053961;28;20668;-86
2022/02/13 11:36:13;;;;;;;15.33;10.93;;;;;;;;;;5053660;28;20289;-87
2022/02/13 11:38:56;;;;;;;7.03;6.13;;;;;;;;;;5053356;28;20308;-86
2022/02/13 11:42:07;;;;;;;9.10;7.77;;;;;;;;;;5053650;28;20284;-86
2022/02/13 11:44:38;;;;;;;14.87;10.93;;;;;;;;;;5053826;28;20565;-86
2022/02/13 11:47:07;;;;;;;14.17;10.97;;;;;;;;;;5053744;28;20658;-86
2022/02/13 11:50:24;;;;;;;7.07;4.67;;;;;;;;;;5053378;28;20194;-86
2022/02/13 11:53:07;;;;;;;29.90;18.10;;;;;;;;;;5053328;28;20310;-86
2022/02/13 11:55:37;;;;;;;3.80;2.53;;;;;;;;;;5053630;28;20225;-87
2022/02/13 11:58:11;;;;;;;45.37;31.07;;;;;;;;;;5053311;28;20202;-87
2022/02/13 12:00:42;;;;;;;32.50;19.83;;;;;;;;;;5053490;28;20673;-86
2022/02/13 12:03:24;;;;;;;42.17;26.43;;;;;;;;;;5053210;28;20193;-86
2022/02/13 12:06:28;;;;;;;24.90;14.90;;;;;;;;;;5053182;28;20185;-87
2022/02/13 12:09:00;;;;;;;55.90;29.60;;;;;;;;;;5053114;28;20185;-86
2022/02/13 12:11:35;;;;;;;13.23;8.77;;;;;;;;;;5053382;28;20178;-86
2022/02/13 12:14:20;;;;;;;4.30;3.40;;;;;;;;;;5053336;28;20184;-87
2022/02/13 12:16:56;;;;;;;2.80;2.60;;;;;;;;;;5052987;28;20233;-86
2022/02/13 12:19:28;;;;;;;2.70;2.30;;;;;;;;;;5053090;28;20312;-87
2022/02/13 12:22:11;;;;;;;6.03;2.90;;;;;;;;;;5053236;28;20571;-87
2022/02/13 12:24:39;;;;;;;5.17;3.10;;;;;;;;;;5053178;28;20217;-87
2022/02/13 12:27:07;;;;;;;3.37;3.00;;;;;;;;;;5052947;28;20293;-87
2022/02/13 12:29:34;;;;;;;3.37;2.97;;;;;;;;;;5052653;28;20251;-86
2022/02/13 12:32:12;;;;;;;5.77;2.50;;;;;;;;;;5053180;28;20686;-86
2022/02/13 12:34:53;;;;;;;6.03;3.83;;;;;;;;;;5052699;28;20208;-86
2022/02/13 12:37:20;;;;;;;11.77;7.13;;;;;;;;;;5052780;28;20208;-86
2022/02/13 12:39:48;;;;;;;10.20;7.53;;;;;;;;;;5053036;28;20260;-87
2022/02/13 12:42:30;;;;;;;9.97;7.47;;;;;;;;;;5052875;28;20197;-87
2022/02/13 12:44:58;;;;;;;9.97;6.97;;;;;;;;;;5053381;28;20194;-87
2022/02/13 12:47:31;;;;;;;6.50;5.87;;;;;;;;;;5052991;28;20559;-87
2022/02/13 12:50:01;;;;;;;5.53;4.83;;;;;;;;;;5052241;28;20284;-87
2022/02/13 12:52:30;;;;;;;11.93;6.90;;;;;;;;;;5052740;28;20665;-87
2022/02/13 12:54:58;;;;;;;5.20;4.13;;;;;;;;;;5052666;28;20584;-86
2022/02/13 12:57:26;;;;;;;7.63;5.53;;;;;;;;;;5052438;28;20205;-87
2022/02/13 12:59:54;;;;;;;6.60;4.97;;;;;;;;;;5052416;28;20733;-86
2022/02/13 13:02:22;;;;;;;6.03;4.23;;;;;;;;;;5052491;28;20204;-86
2022/02/13 13:04:51;;;;;;;5.67;3.60;;;;;;;;;;5052293;28;20197;-87
2022/02/13 13:07:20;;;;;;;3.93;2.67;;;;;;;;;;5052370;28;20198;-88
2022/02/13 13:09:48;;;;;;;4.73;2.97;;;;;;;;;;5052439;28;20304;-88
2022/02/13 13:12:16;;;;;;;2.40;2.20;;;;;;;;;;5052301;28;20289;-88
2022/02/13 13:14:44;;;;;;;4.43;2.60;;;;;;;;;;5052223;28;20288;-88
2022/02/13 13:17:11;;;;;;;4.70;3.17;;;;;;;;;;5052578;28;20627;-88
2022/02/13 13:19:42;;;;;;;8.43;5.30;;;;;;;;;;5052380;28;20233;-88
2022/02/13 13:22:22;;;;;;;3.33;2.97;;;;;;;;;;5052601;28;20182;-88
2022/02/13 13:24:50;;;;;;;6.87;3.23;;;;;;;;;;5052848;28;20687;-88
2022/02/13 13:27:19;;;;;;;40.57;23.37;;;;;;;;;;5052081;28;20709;-88
2022/02/13 13:29:47;;;;;;;47.17;26.57;;;;;;;;;;5052463;28;20285;-88
2022/02/13 13:32:15;;;;;;;35.90;24.20;;;;;;;;;;5052358;28;20644;-88
2022/02/13 13:34:50;;;;;;;43.90;27.20;;;;;;;;;;5052122;28;20277;-88
2022/02/13 13:37:29;;;;;;;18.97;10.87;;;;;;;;;;5052397;28;20201;-88
2022/02/13 13:40:01;;;;;;;42.23;25.37;;;;;;;;;;5052096;28;20206;-88
2022/02/13 13:42:35;;;;;;;12.10;6.87;;;;;;;;;;5052099;28;20202;-88
2022/02/13 13:45:08;;;;;;;19.53;13.07;;;;;;;;;;5052062;28;20189;-88
2022/02/13 13:47:35;;;;;;;4.87;3.90;;;;;;;;;;5052591;28;20276;-88
2022/02/13 13:50:04;;;;;;;4.57;3.43;;;;;;;;;;5051949;28;20194;-88
2022/02/13 13:52:33;;;;;;;3.80;3.33;;;;;;;;;;5051813;28;20328;-88
2022/02/13 13:55:00;;;;;;;4.37;3.10;;;;;;;;;;5051935;28;20281;-88
2022/02/13 13:57:27;;;;;;;4.70;3.63;;;;;;;;;;5051951;28;20277;-88
2022/02/13 13:59:55;;;;;;;9.43;8.07;;;;;;;;;;5051592;28;20265;-89
2022/02/13 14:02:24;;;;;;;6.57;5.13;;;;;;;;;;5054713;28;20200;-89
2022/02/13 14:04:51;;;;;;;9.27;6.93;;;;;;;;;;5055615;28;20200;-88
2022/02/13 14:07:19;;;;;;;4.40;4.00;;;;;;;;;;5055499;28;20288;-88
2022/02/13 14:09:48;;;;;;;13.50;6.17;;;;;;;;;;5055856;28;20301;-88
2022/02/13 14:12:17;;;;;;;5.37;2.77;;;;;;;;;;5055359;28;20733;-88
2022/02/13 14:14:45;;;;;;;7.03;4.63;;;;;;;;;;5055843;28;20190;-87
2022/02/13 14:17:13;;;;;;;15.77;9.43;;;;;;;;;;5055581;28;20233;-88
2022/02/13 14:19:40;;;;;;;15.10;9.33;;;;;;;;;;5055445;28;20600;-87
2022/02/13 14:22:07;;;;;;;20.67;15.83;;;;;;;;;;5055176;28;20797;-88
2022/02/13 14:24:35;;;;;;;5.83;5.30;;;;;;;;;;5055083;28;20237;-88
2022/02/13 14:27:04;;;;;;;3.97;3.33;;;;;;;;;;5055184;28;20681;-88
2022/02/13 14:29:31;;;;;;;3.77;3.33;;;;;;;;;;5054894;28;20200;-88
2022/02/13 14:32:03;;;;;;;4.27;3.53;;;;;;;;;;5054927;28;20209;-88
2022/02/13 14:34:30;;;;;;;6.73;4.60;;;;;;;;;;5055268;28;20557;-88
2022/02/13 14:36:57;;;;;;;7.87;7.10;;;;;;;;;;5054989;28;20288;-88
2022/02/13 14:39:25;;;;;;;16.67;13.33;;;;;;;;;;5054859;28;20288;-88
2022/02/13 14:41:52;;;;;;;4.80;4.10;;;;;;;;;;5055313;28;20198;-88
2022/02/13 14:44:21;;;;;;;8.70;7.20;;;;;;;;;;5054861;28;20327;-88
2022/02/13 14:46:48;;;;;;;6.20;4.63;;;;;;;;;;5054605;28;20233;-88
2022/02/13 14:49:15;;;;;;;5.23;4.73;;;;;;;;;;5054948;28;20217;-88